createdAt,value
2018-10-07T00:00:05.747Z,14.60
2018-10-07T00:02:33.247Z,14.59
2018-10-07T00:05:00.669Z,14.42
2018-10-07T00:07:28.093Z,14.53
2018-10-07T00:09:55.503Z,14.56
2018-10-07T00:12:22.924Z,14.52
2018-10-07T00:14:50.432Z,14.51
2018-10-07T00:17:17.855Z,14.46
2018-10-07T00:19:45.275Z,14.43
2018-10-07T00:22:12.686Z,14.43
2018-10-07T00:24:40.176Z,14.41
2018-10-07T00:27:07.592Z,14.39
2018-10-07T00:29:35.020Z,14.34
2018-10-07T00:32:07.943Z,14.20
2018-10-07T00:34:35.424Z,14.29
2018-10-07T00:37:02.847Z,14.35
2018-10-07T00:39:30.267Z,14.32
2018-10-07T00:41:57.679Z,14.26
2018-10-07T00:44:25.102Z,14.28
2018-10-07T00:46:52.613Z,14.25
2018-10-07T00:49:20.019Z,14.18
2018-10-07T00:51:47.435Z,14.23
2018-10-07T00:54:14.857Z,14.04
2018-10-07T00:56:42.267Z,14.00
2018-10-07T00:59:09.800Z,13.86
2018-10-07T01:01:37.223Z,13.84
2018-10-07T01:04:04.646Z,13.74
2018-10-07T01:06:32.171Z,13.82
2018-10-07T01:08:59.592Z,13.59
2018-10-07T01:11:27.005Z,13.77
2018-10-07T01:13:54.423Z,13.69
2018-10-07T01:16:21.829Z,13.70
2018-10-07T01:18:49.242Z,13.69
2018-10-07T01:21:16.720Z,13.80
2018-10-07T01:23:44.171Z,13.73
2018-10-07T01:26:11.584Z,13.57
2018-10-07T01:28:39.007Z,13.61
2018-10-07T01:31:06.440Z,13.50
2018-10-07T01:33:33.867Z,13.42
2018-10-07T01:36:01.353Z,13.44
2018-10-07T01:38:28.775Z,13.22
2018-10-07T01:40:56.196Z,13.25
2018-10-07T01:43:23.623Z,13.31
2018-10-07T01:45:51.103Z,13.18
2018-10-07T01:48:18.539Z,13.28
2018-10-07T01:50:45.995Z,13.24
2018-10-07T01:53:13.425Z,13.22
2018-10-07T01:55:40.831Z,13.26
2018-10-07T01:58:08.251Z,13.08
2018-10-07T02:00:35.724Z,13.04
2018-10-07T02:03:03.139Z,13.10
2018-10-07T02:05:30.559Z,13.14
2018-10-07T02:07:57.987Z,13.13
2018-10-07T02:10:25.408Z,13.04
2018-10-07T02:12:52.825Z,13.03
2018-10-07T02:15:20.259Z,13.20
2018-10-07T02:17:47.663Z,13.02
2018-10-07T02:20:15.081Z,13.02
2018-10-07T02:22:42.509Z,13.10
2018-10-07T02:25:09.932Z,13.05
2018-10-07T02:27:37.351Z,12.99
2018-10-07T02:30:04.767Z,12.96
2018-10-07T02:32:32.175Z,13.10
2018-10-07T02:34:59.604Z,13.09
2018-10-07T02:37:27.051Z,12.98
2018-10-07T02:39:54.527Z,12.99
2018-10-07T02:42:21.938Z,13.11
2018-10-07T02:44:49.347Z,13.20
2018-10-07T02:47:16.771Z,13.12
2018-10-07T02:49:44.204Z,13.13
2018-10-07T02:52:11.626Z,13.09
2018-10-07T02:54:39.047Z,12.93
2018-10-07T02:57:06.459Z,13.02
2018-10-07T02:59:33.884Z,12.94
2018-10-07T03:02:01.351Z,13.10
2018-10-07T03:04:28.841Z,12.94
2018-10-07T03:06:56.198Z,12.92
2018-10-07T03:09:23.611Z,13.03
2018-10-07T03:11:51.037Z,13.00
2018-10-07T03:14:18.451Z,12.77
2018-10-07T03:16:45.867Z,12.67
2018-10-07T03:19:13.298Z,12.65
2018-10-07T03:21:40.711Z,12.62
2018-10-07T03:24:08.163Z,12.76
2018-10-07T03:26:35.574Z,12.89
2018-10-07T03:29:03.008Z,12.81
2018-10-07T03:31:30.421Z,12.77
2018-10-07T03:33:57.836Z,12.96
2018-10-07T03:36:25.338Z,12.97
2018-10-07T03:38:52.760Z,12.99
2018-10-07T03:41:20.183Z,13.10
2018-10-07T03:43:47.603Z,13.21
2018-10-07T03:46:15.012Z,13.28
2018-10-07T03:48:42.456Z,13.25
2018-10-07T03:51:09.872Z,13.25
2018-10-07T03:53:37.288Z,13.24
2018-10-07T03:56:04.702Z,13.19
2018-10-07T03:58:32.123Z,13.13
2018-10-07T04:00:59.616Z,12.85
2018-10-07T04:03:27.025Z,12.81
2018-10-07T04:05:54.496Z,13.04
2018-10-07T04:08:21.986Z,13.04
2018-10-07T04:10:49.399Z,13.10
2018-10-07T04:13:16.899Z,13.18
2018-10-07T04:15:44.315Z,13.24
2018-10-07T04:18:11.734Z,13.18
2018-10-07T04:20:39.171Z,13.14
2018-10-07T04:23:06.594Z,12.99
2018-10-07T04:25:34.007Z,13.13
2018-10-07T04:28:01.428Z,13.22
2018-10-07T04:30:28.910Z,13.31
2018-10-07T04:32:56.325Z,13.19
2018-10-07T04:35:23.795Z,13.24
2018-10-07T04:37:51.338Z,13.16
2018-10-07T04:40:18.836Z,13.13
2018-10-07T04:42:46.395Z,13.15
2018-10-07T04:45:13.851Z,13.00
2018-10-07T04:47:41.273Z,13.05
2018-10-07T04:50:08.839Z,13.13
2018-10-07T04:52:36.629Z,13.15
2018-10-07T04:55:04.043Z,13.05
2018-10-07T04:57:31.460Z,12.89
2018-10-07T04:59:59.070Z,12.85
2018-10-07T05:02:26.638Z,12.70
2018-10-07T05:04:54.067Z,12.75
2018-10-07T05:07:21.687Z,12.79
2018-10-07T05:09:49.116Z,12.64
2018-10-07T05:12:16.790Z,12.63
2018-10-07T05:14:43.960Z,12.56
2018-10-07T05:17:11.419Z,12.47
2018-10-07T05:19:38.839Z,12.57
2018-10-07T05:22:06.330Z,12.33
2018-10-07T05:24:33.742Z,12.05
2018-10-07T05:27:01.155Z,12.15
2018-10-07T05:29:28.599Z,12.12
2018-10-07T05:31:56.027Z,12.28
2018-10-07T05:34:23.443Z,12.13
2018-10-07T05:36:50.881Z,12.15
2018-10-07T05:39:18.339Z,12.10
2018-10-07T05:41:45.743Z,12.05
2018-10-07T05:44:13.219Z,11.92
2018-10-07T05:46:40.583Z,12.06
2018-10-07T05:49:07.999Z,12.06
2018-10-07T05:51:35.507Z,12.03
2018-10-07T05:54:02.923Z,12.85
2018-10-07T05:56:30.339Z,13.03
2018-10-07T05:58:58.504Z,12.72
2018-10-07T06:01:25.922Z,13.01
2018-10-07T06:03:53.619Z,13.67
2018-10-07T06:06:21.043Z,13.62
2018-10-07T06:08:48.459Z,13.78
2018-10-07T06:11:15.895Z,13.71
2018-10-07T06:13:43.327Z,13.87
2018-10-07T06:16:10.797Z,13.39
2018-10-07T06:18:38.167Z,13.89
2018-10-07T06:21:05.588Z,13.92
2018-10-07T06:23:32.998Z,13.43
2018-10-07T06:26:00.416Z,13.48
2018-10-07T06:28:27.835Z,14.04
2018-10-07T06:30:55.256Z,13.86
2018-10-07T06:33:22.672Z,13.64
2018-10-07T06:35:50.099Z,14.05
2018-10-07T06:38:17.517Z,14.23
2018-10-07T06:40:44.979Z,14.07
2018-10-07T06:43:12.527Z,14.43
2018-10-07T06:45:40.054Z,14.78
2018-10-07T06:48:07.419Z,15.06
2018-10-07T06:50:34.855Z,14.77
2018-10-07T06:53:02.270Z,14.72
2018-10-07T06:55:29.702Z,14.75
2018-10-07T06:57:57.171Z,14.72
2018-10-07T07:00:24.639Z,14.76
2018-10-07T07:02:52.051Z,14.94
2018-10-07T07:05:19.471Z,15.21
2018-10-07T07:07:46.916Z,15.31
2018-10-07T07:10:14.338Z,15.60
2018-10-07T07:12:41.750Z,15.77
2018-10-07T07:15:09.178Z,15.57
2018-10-07T07:17:36.603Z,15.68
2018-10-07T07:20:04.046Z,15.90
2018-10-07T07:22:31.770Z,15.84
2018-10-07T07:24:59.227Z,16.24
2018-10-07T07:27:26.627Z,16.63
2018-10-07T07:29:54.043Z,16.81
2018-10-07T07:32:21.467Z,17.01
2018-10-07T07:34:48.926Z,17.17
2018-10-07T07:37:16.348Z,17.04
2018-10-07T07:39:43.756Z,17.03
2018-10-07T07:42:11.226Z,17.08
2018-10-07T07:44:38.605Z,17.24
2018-10-07T07:47:06.035Z,17.40
2018-10-07T07:49:33.460Z,17.73
2018-10-07T07:52:00.862Z,18.00
2018-10-07T07:54:28.292Z,18.10
2018-10-07T07:56:55.741Z,18.04
2018-10-07T07:59:23.203Z,18.30
2018-10-07T08:01:50.632Z,18.31
2018-10-07T08:04:18.063Z,18.18
2018-10-07T08:06:45.483Z,18.35
2018-10-07T08:09:12.898Z,18.32
2018-10-07T08:11:40.463Z,18.67
2018-10-07T08:14:07.888Z,18.77
2018-10-07T08:16:35.387Z,18.97
2018-10-07T08:19:02.799Z,19.16
2018-10-07T08:21:30.238Z,18.82
2018-10-07T08:23:57.754Z,19.11
2018-10-07T08:26:25.075Z,18.95
2018-10-07T08:28:52.595Z,18.72
2018-10-07T08:31:20.090Z,18.79
2018-10-07T08:33:47.528Z,18.61
2018-10-07T08:36:14.954Z,18.51
2018-10-07T08:38:42.490Z,18.69
2018-10-07T08:41:09.987Z,18.53
2018-10-07T08:43:37.431Z,18.50
2018-10-07T08:46:04.863Z,18.81
2018-10-07T08:48:32.282Z,18.57
2018-10-07T08:50:59.695Z,18.48
2018-10-07T08:53:27.171Z,18.76
2018-10-07T08:55:54.637Z,18.88
2018-10-07T08:58:22.019Z,18.75
2018-10-07T09:00:49.446Z,19.19
2018-10-07T09:03:16.889Z,19.12
2018-10-07T09:05:44.360Z,19.47
2018-10-07T09:08:11.830Z,19.32
2018-10-07T09:10:39.246Z,19.59
2018-10-07T09:13:06.683Z,19.35
2018-10-07T09:15:34.191Z,19.69
2018-10-07T09:18:01.641Z,19.80
2018-10-07T09:20:29.054Z,19.83
2018-10-07T09:22:56.566Z,20.16
2018-10-07T09:25:24.003Z,19.95
2018-10-07T09:27:51.440Z,19.84
2018-10-07T09:30:18.851Z,20.08
2018-10-07T09:32:46.288Z,19.48
2018-10-07T09:35:13.696Z,19.55
2018-10-07T09:37:41.115Z,19.57
2018-10-07T09:40:08.531Z,19.23
2018-10-07T09:42:35.950Z,19.19
2018-10-07T09:45:03.384Z,18.98
2018-10-07T09:47:30.830Z,18.79
2018-10-07T09:49:58.263Z,18.94
2018-10-07T09:52:25.850Z,18.72
2018-10-07T09:54:53.100Z,18.78
2018-10-07T09:57:20.559Z,18.79
2018-10-07T09:59:47.979Z,19.14
2018-10-07T10:02:15.399Z,18.83
2018-10-07T10:04:42.909Z,18.76
2018-10-07T10:07:10.325Z,18.74
2018-10-07T10:09:37.711Z,18.45
2018-10-07T10:12:05.146Z,17.85
2018-10-07T10:14:32.568Z,18.00
2018-10-07T10:17:00.021Z,17.88
2018-10-07T10:19:27.485Z,17.78
2018-10-07T10:21:54.896Z,17.95
2018-10-07T10:24:22.322Z,18.03
2018-10-07T10:26:49.763Z,17.46
2018-10-07T10:29:18.082Z,17.58
2018-10-07T10:31:45.498Z,17.33
2018-10-07T10:34:13.004Z,17.39
2018-10-07T10:36:40.499Z,17.15
2018-10-07T10:39:07.930Z,17.37
2018-10-07T10:41:35.355Z,17.42
2018-10-07T10:44:02.783Z,17.53
2018-10-07T10:46:30.198Z,17.37
2018-10-07T10:48:57.627Z,17.48
2018-10-07T10:51:25.152Z,17.15
2018-10-07T10:53:52.595Z,16.97
2018-10-07T10:56:20.055Z,16.99
2018-10-07T10:58:47.519Z,16.56
2018-10-07T11:01:14.943Z,16.92
2018-10-07T11:03:43.015Z,16.91
2018-10-07T11:06:10.599Z,16.93
2018-10-07T11:08:38.023Z,16.67
2018-10-07T11:11:05.523Z,16.79
2018-10-07T11:13:32.964Z,16.65
2018-10-07T11:16:00.532Z,16.73
2018-10-07T11:18:27.963Z,16.51
2018-10-07T11:20:56.235Z,16.38
2018-10-07T11:23:23.728Z,16.56
2018-10-07T11:25:51.187Z,16.60
2018-10-07T11:28:18.620Z,16.56
2018-10-07T11:30:46.101Z,16.57
2018-10-07T11:33:13.558Z,16.52
2018-10-07T11:35:41.248Z,16.63
2018-10-07T11:38:08.656Z,16.35
2018-10-07T11:40:36.152Z,16.24
2018-10-07T11:43:03.600Z,16.14
2018-10-07T11:45:31.012Z,15.91
2018-10-07T11:47:58.443Z,15.94
2018-10-07T11:50:25.859Z,15.91
2018-10-07T11:52:54.087Z,15.81
2018-10-07T11:55:21.455Z,15.82
2018-10-07T11:57:48.887Z,15.85
2018-10-07T12:00:16.482Z,16.07
2018-10-07T12:02:44.044Z,15.92
2018-10-07T12:05:11.361Z,15.87
2018-10-07T12:07:38.756Z,16.22
2018-10-07T12:10:06.242Z,15.96
2018-10-07T12:12:33.611Z,15.74
2018-10-07T12:15:01.064Z,15.85
2018-10-07T12:17:28.487Z,15.76
2018-10-07T12:19:55.973Z,15.90
2018-10-07T12:22:23.431Z,16.01
2018-10-07T12:24:50.847Z,15.91
2018-10-07T12:27:18.371Z,15.93
2018-10-07T12:29:45.790Z,15.50
2018-10-07T12:32:13.223Z,15.35
2018-10-07T12:34:40.651Z,15.32
2018-10-07T12:37:08.072Z,15.12
2018-10-07T12:39:35.915Z,14.93
2018-10-07T12:42:03.555Z,15.14
2018-10-07T12:44:31.130Z,15.30
2018-10-07T12:46:58.687Z,15.26
2018-10-07T12:49:26.112Z,14.98
2018-10-07T12:51:53.532Z,15.10
2018-10-07T12:54:21.000Z,14.98
2018-10-07T12:56:48.448Z,14.84
2018-10-07T12:59:15.915Z,14.78
2018-10-07T13:01:43.378Z,14.90
2018-10-07T13:04:10.826Z,15.01
2018-10-07T13:06:38.251Z,15.00
2018-10-07T13:09:05.755Z,15.18
2018-10-07T13:11:33.181Z,14.91
2018-10-07T13:14:00.601Z,14.97
2018-10-07T13:16:28.011Z,14.88
2018-10-07T13:18:55.435Z,14.68
2018-10-07T13:21:22.856Z,14.69
2018-10-07T13:23:50.276Z,14.77
2018-10-07T13:26:17.715Z,14.82
2018-10-07T13:28:45.130Z,14.75
2018-10-07T13:31:12.544Z,14.61
2018-10-07T13:33:40.042Z,14.62
2018-10-07T13:36:07.431Z,14.54
2018-10-07T13:38:34.859Z,14.29
2018-10-07T13:41:02.279Z,14.47
2018-10-07T13:43:29.707Z,14.53
2018-10-07T13:45:57.188Z,14.39
2018-10-07T13:48:24.647Z,14.43
2018-10-07T13:50:52.175Z,14.31
2018-10-07T13:53:19.642Z,14.62
2018-10-07T13:55:47.010Z,14.72
2018-10-07T13:58:14.428Z,14.47
2018-10-07T14:00:41.859Z,14.85
2018-10-07T14:03:09.271Z,14.88
2018-10-07T14:05:36.695Z,14.90
2018-10-07T14:08:04.217Z,14.92
2018-10-07T14:10:31.831Z,14.62
2018-10-07T14:12:59.400Z,14.69
2018-10-07T14:15:26.820Z,14.87
2018-10-07T14:17:54.239Z,14.62
2018-10-07T14:20:21.776Z,14.64
2018-10-07T14:22:49.267Z,14.49
2018-10-07T14:25:16.690Z,14.66
2018-10-07T14:27:44.173Z,14.46
2018-10-07T14:30:11.639Z,14.52
2018-10-07T14:32:39.069Z,14.55
2018-10-07T14:35:06.544Z,14.24
2018-10-07T14:37:33.983Z,14.27
2018-10-07T14:40:01.399Z,14.34
2018-10-07T14:42:28.819Z,14.26
2018-10-07T14:44:56.242Z,14.31
2018-10-07T14:47:23.696Z,14.09
2018-10-07T14:49:51.111Z,13.97
2018-10-07T14:52:18.534Z,13.89
2018-10-07T14:54:45.958Z,13.98
2018-10-07T14:57:13.371Z,14.15
2018-10-07T14:59:40.786Z,14.09
2018-10-07T15:02:08.206Z,14.03
2018-10-07T15:04:35.629Z,14.22
2018-10-07T15:07:03.031Z,14.09
2018-10-07T15:09:30.461Z,14.07
2018-10-07T15:11:57.867Z,14.03
2018-10-07T15:14:25.291Z,14.13
2018-10-07T15:16:52.690Z,14.20
2018-10-07T15:19:20.172Z,14.19
2018-10-07T15:21:47.627Z,14.10
2018-10-07T15:24:15.046Z,14.03
2018-10-07T15:26:42.462Z,13.99
2018-10-07T15:29:09.923Z,13.98
2018-10-07T15:31:37.323Z,13.88
2018-10-07T15:34:04.738Z,13.89
2018-10-07T15:36:32.150Z,13.86
2018-10-07T15:38:59.568Z,13.81
2018-10-07T15:41:26.991Z,13.80
2018-10-07T15:43:54.399Z,13.69
2018-10-07T15:46:21.816Z,13.70
2018-10-07T15:48:49.230Z,13.60
2018-10-07T15:51:16.679Z,13.70
2018-10-07T15:53:44.141Z,13.67
2018-10-07T15:56:11.521Z,13.67
2018-10-07T15:58:38.939Z,13.58
2018-10-07T16:01:06.443Z,13.62
2018-10-07T16:03:33.871Z,13.63
2018-10-07T16:06:01.304Z,13.44
2018-10-07T16:08:28.719Z,13.40
2018-10-07T16:10:56.133Z,13.20
2018-10-07T16:13:23.552Z,13.23
2018-10-07T16:15:50.976Z,13.14
2018-10-07T16:18:18.458Z,13.10
2018-10-07T16:20:45.847Z,12.99
2018-10-07T16:23:13.255Z,13.15
2018-10-07T16:25:40.711Z,13.07
2018-10-07T16:28:08.135Z,13.09
2018-10-07T16:30:35.563Z,13.14
2018-10-07T16:33:02.977Z,13.08
2018-10-07T16:35:30.391Z,13.12
2018-10-07T16:37:57.806Z,13.13
2018-10-07T16:40:25.319Z,13.12
2018-10-07T16:42:53.076Z,13.09
2018-10-07T16:45:20.502Z,12.91
2018-10-07T16:47:47.927Z,12.91
2018-10-07T16:50:15.385Z,12.78
2018-10-07T16:52:42.804Z,12.71
2018-10-07T16:55:10.222Z,12.68
2018-10-07T16:57:37.635Z,12.64
2018-10-07T17:00:05.060Z,12.55
2018-10-07T17:02:32.540Z,12.52
2018-10-07T17:04:59.980Z,12.46
2018-10-07T17:07:27.391Z,12.48
2018-10-07T17:09:54.808Z,12.53
2018-10-07T17:12:22.228Z,12.49
2018-10-07T17:14:49.635Z,12.37
2018-10-07T17:17:17.073Z,12.30
2018-10-07T17:19:44.470Z,12.36
2018-10-07T17:22:11.921Z,12.44
2018-10-07T17:24:39.334Z,12.34
2018-10-07T17:27:06.827Z,12.27
2018-10-07T17:29:34.175Z,12.24
2018-10-07T17:32:01.629Z,12.18
2018-10-07T17:34:29.037Z,12.16
2018-10-07T17:36:56.567Z,12.19
2018-10-07T17:39:23.988Z,12.31
2018-10-07T17:41:51.404Z,12.22
2018-10-07T17:44:18.836Z,12.24
2018-10-07T17:46:46.264Z,12.32
2018-10-07T17:49:13.679Z,12.27
2018-10-07T17:51:41.099Z,12.32
2018-10-07T17:54:08.564Z,12.38
2018-10-07T17:56:36.095Z,12.37
2018-10-07T17:59:03.526Z,12.39
2018-10-07T18:01:30.980Z,12.45
2018-10-07T18:03:58.399Z,12.52
2018-10-07T18:06:25.862Z,12.60
2018-10-07T18:08:53.279Z,12.40
2018-10-07T18:11:20.694Z,12.37
2018-10-07T18:13:48.107Z,12.42
2018-10-07T18:16:15.522Z,12.09
2018-10-07T18:18:42.948Z,12.19
2018-10-07T18:21:10.480Z,12.14
2018-10-07T18:23:37.779Z,12.28
2018-10-07T18:26:05.195Z,12.33
2018-10-07T18:28:32.667Z,12.31
2018-10-07T18:31:00.080Z,12.37
2018-10-07T18:33:27.493Z,12.43
2018-10-07T18:35:54.914Z,12.53
2018-10-07T18:38:22.395Z,12.33
2018-10-07T18:40:49.779Z,12.34
2018-10-07T18:43:17.277Z,12.22
2018-10-07T18:45:44.662Z,12.36
2018-10-07T18:48:12.057Z,12.25
2018-10-07T18:50:39.473Z,12.38
2018-10-07T18:53:06.883Z,12.28
2018-10-07T18:55:34.301Z,12.28
2018-10-07T18:58:01.724Z,12.14
2018-10-07T19:00:29.138Z,12.40
2018-10-07T19:02:56.785Z,12.43
2018-10-07T19:05:24.075Z,12.34
2018-10-07T19:07:51.655Z,12.10
2018-10-07T19:10:19.171Z,12.06
2018-10-07T19:12:46.587Z,12.21
2018-10-07T19:15:13.996Z,12.16
2018-10-07T19:17:41.419Z,12.07
2018-10-07T19:20:08.835Z,12.13
2018-10-07T19:22:36.256Z,12.25
2018-10-07T19:25:03.671Z,12.22
2018-10-07T19:27:31.139Z,12.28
2018-10-07T19:29:58.575Z,12.16
2018-10-07T19:32:26.015Z,12.35
2018-10-07T19:34:53.435Z,12.23
2018-10-07T19:37:21.015Z,12.15
2018-10-07T19:39:48.259Z,11.98
2018-10-07T19:42:15.688Z,11.96
2018-10-07T19:44:43.149Z,12.02
2018-10-07T19:47:10.534Z,12.09
2018-10-07T19:49:37.935Z,12.11
2018-10-07T19:52:05.361Z,12.20
2018-10-07T19:54:32.780Z,11.93
2018-10-07T19:57:00.199Z,12.08
2018-10-07T19:59:27.681Z,12.09
2018-10-07T20:01:55.095Z,12.21
2018-10-07T20:04:22.519Z,12.16
2018-10-07T20:06:49.943Z,12.12
2018-10-07T20:09:17.355Z,12.02
2018-10-07T20:11:44.780Z,12.12
2018-10-07T20:14:12.203Z,12.02
2018-10-07T20:16:39.779Z,12.01
2018-10-07T20:19:07.427Z,11.99
2018-10-07T20:21:34.867Z,11.86
2018-10-07T20:24:02.228Z,11.90
2018-10-07T20:26:29.712Z,11.91
2018-10-07T20:28:57.177Z,11.73
2018-10-07T20:31:24.587Z,11.57
2018-10-07T20:33:52.291Z,11.42
2018-10-07T20:36:19.671Z,11.49
2018-10-07T20:38:47.091Z,11.44
2018-10-07T20:41:14.503Z,11.37
2018-10-07T20:43:42.018Z,11.44
2018-10-07T20:46:09.444Z,11.28
2018-10-07T20:48:36.868Z,11.19
2018-10-07T20:51:04.347Z,11.15
2018-10-07T20:53:31.764Z,11.08
2018-10-07T20:55:59.202Z,10.93
2018-10-07T20:58:26.631Z,10.99
2018-10-07T21:00:54.047Z,10.88
2018-10-07T21:03:21.479Z,10.75
2018-10-07T21:05:48.927Z,10.56
2018-10-07T21:08:16.348Z,10.35
2018-10-07T21:10:43.791Z,9.87
2018-10-07T21:13:11.266Z,9.92
2018-10-07T21:15:38.684Z,9.94
2018-10-07T21:18:06.098Z,9.83
2018-10-07T21:20:33.503Z,9.98
2018-10-07T21:23:00.929Z,10.12
2018-10-07T21:25:28.336Z,9.97
2018-10-07T21:27:55.746Z,9.72
2018-10-07T21:30:23.155Z,9.79
2018-10-07T21:32:50.581Z,9.52
2018-10-07T21:35:17.991Z,9.65
2018-10-07T21:37:45.534Z,9.52
2018-10-07T21:40:12.949Z,9.48
2018-10-07T21:42:40.353Z,9.47
2018-10-07T21:45:07.840Z,9.52
2018-10-07T21:47:35.300Z,9.21
2018-10-07T21:50:02.757Z,9.27
2018-10-07T21:52:30.209Z,9.15
2018-10-07T21:54:57.679Z,9.13
2018-10-07T21:57:25.099Z,9.09
2018-10-07T21:59:52.652Z,9.14
2018-10-07T22:02:20.063Z,9.08
2018-10-07T22:04:47.466Z,9.05
2018-10-07T22:07:14.878Z,8.88
2018-10-07T22:09:42.279Z,8.98
2018-10-07T22:12:09.686Z,8.88
2018-10-07T22:14:37.127Z,8.66
2018-10-07T22:17:04.546Z,8.61
2018-10-07T22:19:32.391Z,8.64
2018-10-07T22:21:59.798Z,8.51
2018-10-07T22:24:27.207Z,8.55
2018-10-07T22:26:54.625Z,8.27
2018-10-07T22:29:22.047Z,8.22
2018-10-07T22:31:49.458Z,8.25
2018-10-07T22:34:16.876Z,8.34
2018-10-07T22:36:44.286Z,8.40
2018-10-07T22:39:11.709Z,8.38
2018-10-07T22:41:39.125Z,8.30
2018-10-07T22:44:06.538Z,8.38
2018-10-07T22:46:33.947Z,8.24
2018-10-07T22:49:01.375Z,8.30
2018-10-07T22:51:28.780Z,8.41
2018-10-07T22:53:56.205Z,7.88
2018-10-07T22:56:23.611Z,7.40
2018-10-07T22:58:51.026Z,7.66
2018-10-07T23:01:18.445Z,7.73
2018-10-07T23:03:45.856Z,7.94
2018-10-07T23:06:13.332Z,8.04
2018-10-07T23:08:40.771Z,7.87
2018-10-07T23:11:08.276Z,7.82
2018-10-07T23:13:35.686Z,7.31
2018-10-07T23:16:03.092Z,7.46
2018-10-07T23:18:30.607Z,7.49
2018-10-07T23:20:58.010Z,7.63
2018-10-07T23:23:25.426Z,7.54
2018-10-07T23:25:52.814Z,7.51
2018-10-07T23:28:20.236Z,7.65
2018-10-07T23:30:47.703Z,7.10
2018-10-07T23:33:15.115Z,7.25
2018-10-07T23:35:42.515Z,7.17
2018-10-07T23:38:09.924Z,7.34
2018-10-07T23:40:37.330Z,7.43
2018-10-07T23:43:04.750Z,7.41
2018-10-07T23:45:32.156Z,7.38
2018-10-07T23:47:59.576Z,7.13
2018-10-07T23:50:26.987Z,7.23
2018-10-07T23:52:54.396Z,7.30
2018-10-07T23:55:21.875Z,7.24
2018-10-07T23:57:49.287Z,7.27
